This is the latest recevied weather packets stored in our database for station/object KC1ELF. If no packets are shown the sender has not sent any weather packets the latest 1 day(s).
| Time | Temp. | Humidity | Pressure | Rain* | Wind** | Luminosity | Snow |
|---|---|---|---|---|---|---|---|
| 1778010695 | 30° C | 37% | 1004.8 hPa | 0 mm | 3.13 m/s, 278° | - | - |
| 1778010095 | 28.89° C | 38% | 1004.7 hPa | 0 mm | 1.79 m/s, 305° | - | - |
| 1778009495 | 28.89° C | 37% | 1004.7 hPa | 0 mm | 3.58 m/s, 123° | - | - |
| 1778008895 | 28.89° C | 38% | 1004.9 hPa | 0 mm | 2.24 m/s, 199° | - | - |
| 1778008296 | 28.89° C | 36% | 1005.1 hPa | 0 mm | 4.02 m/s, 265° | - | - |
| 1778007695 | 30.56° C | 34% | 1005.2 hPa | 0 mm | 2.68 m/s, 259° | - | - |
| 1778007096 | 30.56° C | 33% | 1005.4 hPa | 0 mm | 2.68 m/s, 185° | - | - |
| 1778006498 | 30° C | 34% | 1005.7 hPa | 0 mm | 5.36 m/s, 240° | - | - |
| 1778005895 | 30.56° C | 34% | 1005.6 hPa | 0 mm | 4.47 m/s, 298° | - | - |
| 1778005295 | 30.56° C | 36% | 1005.9 hPa | 0 mm | 3.58 m/s, 352° | - | - |
| 1778004695 | 31.67° C | 34% | 1005.9 hPa | 0 mm | 3.58 m/s, 294° | - | - |
| 1778004096 | 31.67° C | 36% | 1006.1 hPa | 0 mm | 3.58 m/s, 267° | - | - |
| 1778003495 | 31.11° C | 36% | 1006.3 hPa | 0 mm | 3.13 m/s, 309° | - | - |
| 1778002895 | 30.56° C | 37% | 1006.5 hPa | 0 mm | 3.13 m/s, 212° | - | - |
| 1778002295 | 30° C | 38% | 1006.6 hPa | 0 mm | 2.24 m/s, 298° | - | - |
| 1778001695 | 28.89° C | 40% | 1006.9 hPa | 0 mm | 2.24 m/s, 14° | - | - |
| 1778001097 | 27.78° C | 41% | 1007.2 hPa | 0 mm | 2.68 m/s, 126° | - | - |
| 1778000495 | 27.22° C | 42% | 1007.1 hPa | 0 mm | 2.24 m/s, 268° | - | - |
| 1777999895 | 27.22° C | 43% | 1007.2 hPa | 0 mm | 2.68 m/s, 228° | - | - |
| 1777999295 | 27.22° C | 46% | 1007.3 hPa | 0 mm | 2.24 m/s, 260° | - | - |
| 1777998695 | 26.67° C | 46% | 1007.7 hPa | 0 mm | 2.24 m/s, 311° | - | - |
| 1777998096 | 26.11° C | 47% | 1007.8 hPa | 0 mm | 2.24 m/s, 196° | - | - |
| 1777997495 | 25.56° C | 47% | 1008.1 hPa | 0 mm | 1.34 m/s, 144° | - | - |
| 1777996895 | 25.56° C | 49% | 1008.2 hPa | 0 mm | 1.79 m/s, 262° | - | - |
| 1777996295 | 25° C | 49% | 1008.4 hPa | 0 mm | 1.34 m/s, 238° | - | - |
* Rain latest hour (hover to see other rain measurements)
** Current wind speed in m/s (hover to see current wind gust speed)